createdAt,value
2023-04-03T00:01:02.000Z,38.6
2023-04-03T00:02:12.000Z,38.6
2023-04-03T00:03:22.000Z,38.6
2023-04-03T00:04:33.000Z,38.6
2023-04-03T00:05:43.000Z,38.6
2023-04-03T00:06:53.000Z,38.6
2023-04-03T00:08:03.362Z,38.6
2023-04-03T00:09:13.000Z,38.6
2023-04-03T00:10:23.000Z,38.6
2023-04-03T00:11:33.000Z,38.6
2023-04-03T00:12:42.829Z,38.6
2023-04-03T00:13:52.000Z,38.6
2023-04-03T00:15:03.061Z,38.6
2023-04-03T00:16:13.000Z,38.6
2023-04-03T00:17:23.000Z,38.6
2023-04-03T00:18:33.000Z,38.6
2023-04-03T00:19:43.538Z,38.6
2023-04-03T00:20:52.000Z,38.6
2023-04-03T00:22:01.000Z,38.6
2023-04-03T00:23:10.000Z,38.6
2023-04-03T00:24:20.000Z,38.6
2023-04-03T00:25:30.189Z,38.6
2023-04-03T00:26:40.305Z,38.6
2023-04-03T00:27:50.421Z,38.6
2023-04-03T00:29:00.548Z,38.6
2023-04-03T00:30:10.000Z,38.6
2023-04-03T00:31:20.000Z,38.6
2023-04-03T00:32:30.000Z,38.6
2023-04-03T00:33:41.005Z,38.6
2023-04-03T00:34:51.126Z,38.6
2023-04-03T00:36:01.000Z,38.6
2023-04-03T00:37:11.348Z,38.6
2023-04-03T00:38:21.477Z,38.6
2023-04-03T00:39:30.000Z,38.6
2023-04-03T00:40:40.000Z,38.6
2023-04-03T00:41:50.000Z,38.6
2023-04-03T00:43:00.000Z,38.6
2023-04-03T00:44:11.000Z,38.6
2023-04-03T00:45:21.000Z,38.6
2023-04-03T00:46:31.000Z,38.6
2023-04-03T00:47:40.438Z,38.6
2023-04-03T00:48:49.000Z,38.6
2023-04-03T00:49:59.000Z,38.6
2023-04-03T00:51:09.804Z,38.6
2023-04-03T00:52:19.915Z,38.6
2023-04-03T00:53:30.033Z,38.6
2023-04-03T00:54:40.152Z,38.6
2023-04-03T00:55:50.000Z,38.6
2023-04-03T00:57:00.000Z,38.6
2023-04-03T00:58:10.507Z,38.6
2023-04-03T00:59:20.000Z,38.6
2023-04-03T01:00:30.000Z,38.5
2023-04-03T01:01:40.000Z,38.5
2023-04-03T01:02:50.000Z,38.5
2023-04-03T01:04:00.098Z,38.5
2023-04-03T01:05:10.000Z,38.5
2023-04-03T01:06:20.000Z,38.5
2023-04-03T01:07:30.000Z,38.5
2023-04-03T01:08:40.000Z,38.5
2023-04-03T01:09:50.000Z,38.5
2023-04-03T01:11:00.000Z,38.5
2023-04-03T01:12:09.000Z,38.5
2023-04-03T01:13:19.065Z,38.5
2023-04-03T01:14:28.204Z,38.5
2023-04-03T01:15:37.000Z,38.5
2023-04-03T01:16:46.000Z,38.5
2023-04-03T01:17:55.000Z,38.5
2023-04-03T01:19:05.727Z,38.5
2023-04-03T01:20:15.841Z,38.5
2023-04-03T01:21:25.000Z,38.5
2023-04-03T01:22:36.000Z,38.5
2023-04-03T01:23:46.195Z,38.5
2023-04-03T01:24:56.306Z,38.5
2023-04-03T01:26:06.428Z,38.5
2023-04-03T01:27:16.000Z,38.5
2023-04-03T01:28:26.653Z,38.5
2023-04-03T01:29:36.000Z,38.5
2023-04-03T01:30:46.000Z,38.5
2023-04-03T01:31:57.000Z,38.5
2023-04-03T01:33:06.000Z,38.4
2023-04-03T01:34:16.000Z,38.4
2023-04-03T01:35:26.000Z,38.5
2023-04-03T01:36:36.481Z,38.4
2023-04-03T01:37:46.000Z,38.4
2023-04-03T01:38:56.000Z,38.4
2023-04-03T01:40:06.000Z,38.4
2023-04-03T01:41:15.976Z,38.4
2023-04-03T01:42:25.000Z,38.4
2023-04-03T01:43:35.220Z,38.4
2023-04-03T01:44:44.000Z,38.4
2023-04-03T01:45:53.000Z,38.4
2023-04-03T01:47:03.617Z,38.4
2023-04-03T01:48:13.000Z,38.4
2023-04-03T01:49:23.000Z,38.4
2023-04-03T01:50:33.967Z,38.4
2023-04-03T01:51:44.074Z,38.4
2023-04-03T01:52:54.000Z,38.4
2023-04-03T01:54:04.311Z,38.4
2023-04-03T01:55:14.000Z,38.4
2023-04-03T01:56:24.000Z,38.4
2023-04-03T01:57:34.000Z,38.4
2023-04-03T01:58:44.769Z,38.4
2023-04-03T01:59:54.000Z,38.4
2023-04-03T02:01:04.000Z,38.3
2023-04-03T02:02:14.000Z,38.4
2023-04-03T02:03:24.000Z,38.3
2023-04-03T02:04:34.363Z,38.4
2023-04-03T02:05:44.000Z,38.3
2023-04-03T02:06:54.601Z,38.3
2023-04-03T02:08:04.000Z,38.3
2023-04-03T02:09:13.000Z,38.3
2023-04-03T02:10:22.000Z,38.3
2023-04-03T02:11:32.000Z,38.3
2023-04-03T02:12:41.000Z,38.3
2023-04-03T02:13:51.380Z,38.3
2023-04-03T02:15:01.492Z,38.3
2023-04-03T02:16:11.000Z,38.3
2023-04-03T02:17:21.000Z,38.3
2023-04-03T02:18:31.000Z,38.3
2023-04-03T02:19:41.959Z,38.3
2023-04-03T02:20:52.000Z,38.3
2023-04-03T02:22:02.189Z,38.3
2023-04-03T02:23:12.311Z,38.3
2023-04-03T02:24:22.000Z,38.3
2023-04-03T02:25:32.547Z,38.3
2023-04-03T02:26:42.000Z,38.3
2023-04-03T02:27:51.000Z,38.3
2023-04-03T02:29:01.000Z,38.3
2023-04-03T02:30:12.032Z,38.3
2023-04-03T02:31:22.145Z,38.3
2023-04-03T02:32:32.000Z,38.3
2023-04-03T02:33:42.000Z,38.3
2023-04-03T02:34:52.000Z,38.3
2023-04-03T02:36:01.000Z,38.3
2023-04-03T02:37:10.756Z,38.2
2023-04-03T02:38:19.900Z,38.2
2023-04-03T02:39:29.029Z,38.3
2023-04-03T02:40:39.000Z,38.2
2023-04-03T02:41:49.000Z,38.2
2023-04-03T02:42:59.379Z,38.2
2023-04-03T02:44:09.000Z,38.2
2023-04-03T02:45:19.000Z,38.2
2023-04-03T02:46:29.000Z,38.2
2023-04-03T02:47:39.000Z,38.2
2023-04-03T02:48:49.000Z,38.2
2023-04-03T02:50:00.000Z,38.2
2023-04-03T02:51:10.193Z,38.2
2023-04-03T02:52:20.000Z,38.2
2023-04-03T02:53:30.000Z,38.2
2023-04-03T02:54:39.555Z,38.2
2023-04-03T02:55:49.000Z,38.2
2023-04-03T02:56:59.787Z,38.2
2023-04-03T02:58:09.000Z,38.2
2023-04-03T02:59:20.000Z,38.1
2023-04-03T03:00:30.137Z,38.1
2023-04-03T03:01:40.000Z,38.1
2023-04-03T03:02:49.000Z,38.1
2023-04-03T03:03:58.521Z,38.1
2023-04-03T03:05:07.000Z,38.1
2023-04-03T03:06:16.000Z,38.1
2023-04-03T03:07:26.000Z,38.1
2023-04-03T03:08:37.000Z,38.1
2023-04-03T03:09:47.000Z,38.1
2023-04-03T03:10:57.000Z,38.1
2023-04-03T03:12:07.379Z,38.1
2023-04-03T03:13:17.497Z,38.1
2023-04-03T03:14:27.607Z,38
2023-04-03T03:15:37.733Z,37.9
2023-04-03T03:16:47.840Z,37.9
2023-04-03T03:17:57.000Z,37.9
2023-04-03T03:19:08.071Z,37.9
2023-04-03T03:20:18.000Z,37.8
2023-04-03T03:21:27.326Z,37.8
2023-04-03T03:22:37.439Z,37.7
2023-04-03T03:23:47.558Z,37.7
2023-04-03T03:24:57.000Z,37.7
2023-04-03T03:26:07.789Z,37.6
2023-04-03T03:27:17.000Z,37.5
2023-04-03T03:28:28.000Z,37.5
2023-04-03T03:29:37.000Z,37.5
2023-04-03T03:30:46.292Z,37.4
2023-04-03T03:31:56.409Z,37.4
2023-04-03T03:33:05.000Z,37.3
2023-04-03T03:34:14.000Z,37.3
2023-04-03T03:35:24.000Z,37.1
2023-04-03T03:36:34.914Z,37.1
2023-04-03T03:37:45.000Z,37
2023-04-03T03:38:54.000Z,37
2023-04-03T03:40:04.000Z,37
2023-04-03T03:41:14.000Z,37
2023-04-03T03:42:24.000Z,36.8
2023-04-03T03:43:34.000Z,36.8
2023-04-03T03:44:44.000Z,36.7
2023-04-03T03:45:54.000Z,36.7
2023-04-03T03:47:04.000Z,36.6
2023-04-03T03:48:15.092Z,36.6
2023-04-03T03:49:25.000Z,36.5
2023-04-03T03:50:35.000Z,36.5
2023-04-03T03:51:45.000Z,36.4
2023-04-03T03:52:55.000Z,36.4
2023-04-03T03:54:04.000Z,36.3
2023-04-03T03:55:14.000Z,36.3
2023-04-03T03:56:24.000Z,36.2
2023-04-03T03:57:34.000Z,36.2
2023-04-03T03:58:43.195Z,36.1
2023-04-03T03:59:52.000Z,36.1
2023-04-03T04:01:01.475Z,36.1
2023-04-03T04:02:11.000Z,36
2023-04-03T04:03:21.000Z,36
2023-04-03T04:04:31.000Z,36
2023-04-03T04:05:41.000Z,35.9
2023-04-03T04:06:52.000Z,35.8
2023-04-03T04:08:02.000Z,35.8
2023-04-03T04:09:12.000Z,35.8
2023-04-03T04:10:22.400Z,35.7
2023-04-03T04:11:32.000Z,35.7
2023-04-03T04:12:42.000Z,35.7
2023-04-03T04:13:52.000Z,35.6
2023-04-03T04:15:02.000Z,35.6
2023-04-03T04:16:11.000Z,35.6
2023-04-03T04:17:22.000Z,35.6
2023-04-03T04:18:32.226Z,35.6
2023-04-03T04:19:42.000Z,35.5
2023-04-03T04:20:52.000Z,35.5
2023-04-03T04:22:02.000Z,35.5
2023-04-03T04:23:12.697Z,35.5
2023-04-03T04:24:21.831Z,35.4
2023-04-03T04:25:30.000Z,35.4
2023-04-03T04:26:41.000Z,35.4
2023-04-03T04:27:50.227Z,35.4
2023-04-03T04:28:59.000Z,35.4
2023-04-03T04:30:09.000Z,35.4
2023-04-03T04:31:19.589Z,35.4
2023-04-03T04:32:29.709Z,35.4
2023-04-03T04:33:39.000Z,35.3
2023-04-03T04:34:49.000Z,35.3
2023-04-03T04:36:00.000Z,35.3
2023-04-03T04:37:10.000Z,35.3
2023-04-03T04:38:20.286Z,35.3
2023-04-03T04:39:30.000Z,35.3
2023-04-03T04:40:40.000Z,35.3
2023-04-03T04:41:50.000Z,35.3
2023-04-03T04:43:00.000Z,35.2
2023-04-03T04:44:09.900Z,35.2
2023-04-03T04:45:20.000Z,35.2
2023-04-03T04:46:30.000Z,35.2
2023-04-03T04:47:40.000Z,35.2
2023-04-03T04:48:50.000Z,35.2
2023-04-03T04:50:00.000Z,35.2
2023-04-03T04:51:10.000Z,35.2
2023-04-03T04:52:19.000Z,35.2
2023-04-03T04:53:28.854Z,35.2
2023-04-03T04:54:38.000Z,35.2
2023-04-03T04:55:48.114Z,35.2
2023-04-03T04:56:57.000Z,35.2
2023-04-03T04:58:07.000Z,35
2023-04-03T04:59:17.000Z,35
2023-04-03T05:00:27.000Z,35
2023-04-03T05:01:37.000Z,34.9
2023-04-03T05:02:47.000Z,34.8
2023-04-03T05:03:57.000Z,34.5
2023-04-03T05:05:08.061Z,34.5
2023-04-03T05:06:18.000Z,34.3
2023-04-03T05:07:28.307Z,33.9
2023-04-03T05:08:38.000Z,33.9
2023-04-03T05:09:48.000Z,33.7
2023-04-03T05:10:58.000Z,33.5
2023-04-03T05:12:07.000Z,33.4
2023-04-03T05:13:17.920Z,33.4
2023-04-03T05:14:28.000Z,33.3
2023-04-03T05:15:38.118Z,33
2023-04-03T05:16:48.239Z,33
2023-04-03T05:17:58.353Z,33
2023-04-03T05:19:08.000Z,32.8
2023-04-03T05:20:17.627Z,32.8
2023-04-03T05:21:26.743Z,32.6
2023-04-03T05:22:35.893Z,32.5
2023-04-03T05:23:45.019Z,32.5
2023-04-03T05:24:55.000Z,32.5
2023-04-03T05:26:05.000Z,32.5
2023-04-03T05:27:15.366Z,32.3
2023-04-03T05:28:25.000Z,32.1
2023-04-03T05:29:35.601Z,32.1
2023-04-03T05:30:45.000Z,31.9
2023-04-03T05:31:55.834Z,32
2023-04-03T05:33:05.000Z,31.9
2023-04-03T05:34:16.000Z,31.9
2023-04-03T05:35:26.180Z,31.8
2023-04-03T05:36:36.000Z,31.8
2023-04-03T05:37:46.000Z,31.6
2023-04-03T05:38:55.000Z,31.6
2023-04-03T05:40:05.000Z,31.6
2023-04-03T05:41:15.000Z,31.4
2023-04-03T05:42:25.000Z,31.4
2023-04-03T05:43:36.000Z,31.4
2023-04-03T05:44:46.000Z,31.4
2023-04-03T05:45:56.000Z,31.3
2023-04-03T05:47:05.000Z,31.3
2023-04-03T05:48:14.000Z,31.3
2023-04-03T05:49:23.000Z,31.1
2023-04-03T05:50:32.000Z,31.1
2023-04-03T05:51:42.000Z,31.1
2023-04-03T05:52:53.000Z,31.1
2023-04-03T05:54:03.000Z,31.1
2023-04-03T05:55:13.000Z,30.9
2023-04-03T05:56:23.371Z,30.9
2023-04-03T05:57:33.487Z,30.9
2023-04-03T05:58:43.000Z,30.9
2023-04-03T05:59:53.000Z,30.9
2023-04-03T06:01:03.840Z,30.8
2023-04-03T06:02:13.000Z,30.9
2023-04-03T06:03:24.000Z,30.6
2023-04-03T06:04:34.000Z,30.6
2023-04-03T06:05:43.313Z,30.6
2023-04-03T06:06:53.432Z,30.6
2023-04-03T06:08:03.547Z,30.6
2023-04-03T06:09:13.000Z,30.6
2023-04-03T06:10:23.000Z,30.6
2023-04-03T06:11:33.000Z,30.4
2023-04-03T06:12:44.017Z,30.4
2023-04-03T06:13:53.000Z,30.4
2023-04-03T06:15:02.000Z,30.4
2023-04-03T06:16:11.000Z,30.4
2023-04-03T06:17:20.561Z,30.4
2023-04-03T06:18:30.000Z,30.4
2023-04-03T06:19:40.000Z,30.4
2023-04-03T06:20:50.909Z,30.1
2023-04-03T06:22:01.033Z,30.1
2023-04-03T06:23:11.000Z,30.3
2023-04-03T06:24:21.000Z,30.1
2023-04-03T06:25:31.000Z,30.1
2023-04-03T06:26:41.000Z,30.1
2023-04-03T06:27:51.000Z,30.1
2023-04-03T06:29:01.000Z,30.1
2023-04-03T06:30:11.000Z,29.9
2023-04-03T06:31:21.000Z,29.9
2023-04-03T06:32:31.000Z,29.9
2023-04-03T06:33:41.000Z,29.9
2023-04-03T06:34:51.000Z,29.9
2023-04-03T06:36:01.000Z,29.9
2023-04-03T06:37:11.554Z,29.9
2023-04-03T06:38:21.666Z,29.9
2023-04-03T06:39:31.000Z,29.9
2023-04-03T06:40:40.924Z,29.7
2023-04-03T06:41:50.059Z,29.6
2023-04-03T06:42:59.000Z,29.6
2023-04-03T06:44:08.000Z,29.6
2023-04-03T06:45:18.458Z,29.6
2023-04-03T06:46:28.570Z,29.6
2023-04-03T06:47:38.000Z,29.6
2023-04-03T06:48:48.000Z,29.6
2023-04-03T06:49:58.000Z,29.4
2023-04-03T06:51:09.000Z,29.4
2023-04-03T06:52:19.000Z,29.3
2023-04-03T06:53:29.000Z,29.3
2023-04-03T06:54:39.383Z,29.3
2023-04-03T06:55:49.000Z,29.2
2023-04-03T06:56:59.611Z,29.2
2023-04-03T06:58:09.727Z,29.1
2023-04-03T06:59:18.000Z,29.1
2023-04-03T07:00:28.000Z,29.1
2023-04-03T07:01:39.000Z,29.1
2023-04-03T07:02:49.000Z,29
2023-04-03T07:03:59.000Z,28.9
2023-04-03T07:05:09.000Z,28.9
2023-04-03T07:06:19.000Z,28.8
2023-04-03T07:07:28.000Z,28.8
2023-04-03T07:08:37.000Z,28.8
2023-04-03T07:09:46.000Z,28.7
2023-04-03T07:10:56.107Z,28.8
2023-04-03T07:12:06.000Z,28.7
2023-04-03T07:13:16.000Z,28.6
2023-04-03T07:14:26.000Z,28.6
2023-04-03T07:15:36.000Z,28.5
2023-04-03T07:16:46.000Z,28.5
2023-04-03T07:17:56.000Z,28.5
2023-04-03T07:19:06.000Z,28.5
2023-04-03T07:20:17.038Z,28.4
2023-04-03T07:21:27.000Z,28.4
2023-04-03T07:22:37.000Z,28.4
2023-04-03T07:23:47.382Z,28.3
2023-04-03T07:26:07.000Z,28.3
2023-04-03T07:27:16.000Z,28.2
2023-04-03T07:28:26.000Z,28.2
2023-04-03T07:29:36.000Z,28.1
2023-04-03T07:30:47.089Z,28.1
2023-04-03T07:31:57.000Z,28.1
2023-04-03T07:33:06.000Z,28
2023-04-03T07:34:16.000Z,28
2023-04-03T07:35:25.000Z,28
2023-04-03T07:36:34.000Z,28
2023-04-03T07:37:43.000Z,27.9
2023-04-03T07:38:53.000Z,27.9
2023-04-03T07:40:03.136Z,27.9
2023-04-03T07:41:13.000Z,27.9
2023-04-03T07:42:23.000Z,27.8
2023-04-03T07:43:33.000Z,27.8
2023-04-03T07:44:43.000Z,27.8
2023-04-03T07:45:53.000Z,27.8
2023-04-03T07:47:03.000Z,27.7
2023-04-03T07:48:13.000Z,27.7
2023-04-03T07:49:24.049Z,27.6
2023-04-03T07:50:34.000Z,27.6
2023-04-03T07:51:44.000Z,27.6
2023-04-03T07:52:54.000Z,27.5
2023-04-03T07:54:03.538Z,27.5
2023-04-03T07:55:13.643Z,27.4
2023-04-03T07:56:23.763Z,27.4
2023-04-03T07:57:33.000Z,27.4
2023-04-03T07:58:43.000Z,27.3
2023-04-03T07:59:54.000Z,27.3
2023-04-03T08:01:04.228Z,27.3
2023-04-03T08:02:13.367Z,27.5
2023-04-03T08:03:22.000Z,27.4
2023-04-03T08:04:32.000Z,27.6
2023-04-03T08:05:42.000Z,27.5
2023-04-03T08:06:52.000Z,27.6
2023-04-03T08:08:02.000Z,27.6
2023-04-03T08:09:13.000Z,27.7
2023-04-03T08:10:23.000Z,27.7
2023-04-03T08:11:33.000Z,27.8
2023-04-03T08:12:43.432Z,27.8
2023-04-03T08:13:53.540Z,27.8
2023-04-03T08:15:03.662Z,27.8
2023-04-03T08:16:13.789Z,27.8
2023-04-03T08:17:23.000Z,27.8
2023-04-03T08:18:33.000Z,27.7
2023-04-03T08:19:43.000Z,27.7
2023-04-03T08:20:53.259Z,27.6
2023-04-03T08:22:03.369Z,27.6
2023-04-03T08:23:13.000Z,27.7
2023-04-03T08:24:23.000Z,27.6
2023-04-03T08:25:33.000Z,27.6
2023-04-03T08:26:42.000Z,27.5
2023-04-03T08:27:51.000Z,27.6
2023-04-03T08:29:01.000Z,27.5
2023-04-03T08:30:10.000Z,27.4
2023-04-03T08:31:20.385Z,27.4
2023-04-03T08:32:30.000Z,27.2
2023-04-03T08:33:40.611Z,27.3
2023-04-03T08:34:50.000Z,27.2
2023-04-03T08:36:00.000Z,27.2
2023-04-03T08:37:10.000Z,27.3
2023-04-03T08:38:21.000Z,27.2
2023-04-03T08:39:31.000Z,27.1
2023-04-03T08:40:41.000Z,27
2023-04-03T08:41:51.000Z,27
2023-04-03T08:43:01.000Z,27
2023-04-03T08:44:11.000Z,27
2023-04-03T08:45:20.799Z,26.9
2023-04-03T08:46:30.902Z,26.9
2023-04-03T08:47:41.023Z,26.7
2023-04-03T08:48:51.000Z,26.7
2023-04-03T08:50:01.000Z,26.7
2023-04-03T08:51:11.000Z,26.7
2023-04-03T08:52:21.481Z,26.7
2023-04-03T08:53:30.000Z,26.5
2023-04-03T08:54:39.000Z,26.4
2023-04-03T08:55:49.887Z,26.5
2023-04-03T08:56:59.985Z,26.4
2023-04-03T08:58:10.000Z,26.3
2023-04-03T08:59:20.000Z,26.3
2023-04-03T09:00:30.337Z,26.2
2023-04-03T09:01:40.000Z,26.3
2023-04-03T09:02:50.565Z,26.2
2023-04-03T09:04:00.000Z,26.2
2023-04-03T09:05:10.798Z,26.1
2023-04-03T09:06:20.926Z,26.1
2023-04-03T09:07:31.000Z,26.1
2023-04-03T09:08:41.000Z,26.1
2023-04-03T09:09:50.000Z,26.1
2023-04-03T09:11:00.000Z,26.2
2023-04-03T09:12:10.513Z,26.2
2023-04-03T09:13:20.000Z,26.2
2023-04-03T09:14:29.770Z,26.2
2023-04-03T09:15:38.896Z,26.2
2023-04-03T09:16:49.000Z,26.2
2023-04-03T09:17:59.000Z,26.1
2023-04-03T09:19:09.000Z,26.1
2023-04-03T09:20:19.362Z,26.1
2023-04-03T09:21:29.000Z,26
2023-04-03T09:22:39.000Z,26
2023-04-03T09:23:49.715Z,26.1
2023-04-03T09:24:59.000Z,26
2023-04-03T09:26:09.943Z,26
2023-04-03T09:27:20.000Z,26
2023-04-03T09:28:30.000Z,25.9
2023-04-03T09:29:40.000Z,25.8
2023-04-03T09:30:49.000Z,25.8
2023-04-03T09:31:59.537Z,25.8
2023-04-03T09:33:09.000Z,25.8
2023-04-03T09:34:19.000Z,25.7
2023-04-03T09:35:29.887Z,25.8
2023-04-03T09:36:40.000Z,25.7
2023-04-03T09:37:50.000Z,25.7
2023-04-03T09:38:59.000Z,25.7
2023-04-03T09:40:08.000Z,25.6
2023-04-03T09:41:17.534Z,25.7
2023-04-03T09:42:26.000Z,25.6
2023-04-03T09:43:36.781Z,25.6
2023-04-03T09:44:46.000Z,25.6
2023-04-03T09:45:57.000Z,25.6
2023-04-03T09:47:07.000Z,25.6
2023-04-03T09:48:17.000Z,25.6
2023-04-03T09:49:27.362Z,25.5
2023-04-03T09:50:37.000Z,25.6
2023-04-03T09:51:47.596Z,25.6
2023-04-03T09:52:57.000Z,25.5
2023-04-03T09:54:07.824Z,25.5
2023-04-03T09:55:17.000Z,25.6
2023-04-03T09:56:28.055Z,25.5
2023-04-03T09:57:37.000Z,25.5
2023-04-03T09:58:47.000Z,25.4
2023-04-03T09:59:57.000Z,25.4
2023-04-03T10:01:07.000Z,25.4
2023-04-03T10:02:17.000Z,25.3
2023-04-03T10:03:27.000Z,25.4
2023-04-03T10:04:37.000Z,25.5
2023-04-03T10:05:47.000Z,25.5
2023-04-03T10:06:56.000Z,25.3
2023-04-03T10:08:05.000Z,25.3
2023-04-03T10:09:14.435Z,25.1
2023-04-03T10:10:24.000Z,25.1
2023-04-03T10:11:34.000Z,24.9
2023-04-03T10:12:44.000Z,24.9
2023-04-03T10:13:54.892Z,24.8
2023-04-03T10:15:05.021Z,24.8
2023-04-03T10:16:15.000Z,24.5
2023-04-03T10:17:25.244Z,24.4
2023-04-03T10:18:35.000Z,24.4
2023-04-03T10:19:45.000Z,24.3
2023-04-03T10:20:55.000Z,24.2
2023-04-03T10:22:05.704Z,24.2
2023-04-03T10:23:15.818Z,24.1
2023-04-03T10:24:24.000Z,24.1
2023-04-03T10:25:35.000Z,24
2023-04-03T10:26:45.182Z,24
2023-04-03T10:27:55.302Z,24.1
2023-04-03T10:29:05.000Z,24.1
2023-04-03T10:30:15.000Z,23.9
2023-04-03T10:31:25.000Z,23.8
2023-04-03T10:32:34.000Z,23.7
2023-04-03T10:33:43.920Z,23.8
2023-04-03T10:34:54.000Z,23.6
2023-04-03T10:36:04.000Z,23.6
2023-04-03T10:37:14.000Z,23.5
2023-04-03T10:38:24.000Z,23.4
2023-04-03T10:39:34.505Z,23.4
2023-04-03T10:40:44.614Z,23.4
2023-04-03T10:41:54.730Z,23.3
2023-04-03T10:43:04.000Z,23.2
2023-04-03T10:44:14.968Z,23.2
2023-04-03T10:45:25.082Z,23.1
2023-04-03T10:46:35.000Z,23.1
2023-04-03T10:47:45.000Z,23
2023-04-03T10:48:54.000Z,23
2023-04-03T10:50:04.000Z,23
2023-04-03T10:51:14.000Z,23
2023-04-03T10:52:24.793Z,23
2023-04-03T10:53:34.912Z,23
2023-04-03T10:54:45.025Z,22.6
2023-04-03T10:55:55.150Z,22.5
2023-04-03T10:57:04.000Z,22.5
2023-04-03T10:58:13.418Z,22.6
2023-04-03T10:59:22.556Z,22.7
2023-04-03T11:00:31.000Z,22.6
2023-04-03T11:01:40.838Z,22.8
2023-04-03T11:02:49.961Z,22.5
2023-04-03T11:03:59.103Z,22.4
2023-04-03T11:05:08.241Z,22.4
2023-04-03T11:06:18.000Z,22.2
2023-04-03T11:07:28.000Z,22.2
2023-04-03T11:08:38.000Z,22.2
2023-04-03T11:09:48.701Z,22.1
2023-04-03T11:10:58.000Z,22.1
2023-04-03T11:12:08.000Z,22
2023-04-03T11:13:19.000Z,22
2023-04-03T11:14:29.000Z,21.9
2023-04-03T11:15:39.000Z,21.9
2023-04-03T11:16:49.000Z,21.9
2023-04-03T11:17:59.000Z,21.8
2023-04-03T11:19:09.630Z,21.7
2023-04-03T11:20:18.759Z,21.9
2023-04-03T11:21:28.000Z,21.8
2023-04-03T11:22:38.991Z,21.6
2023-04-03T11:23:49.104Z,21.8
2023-04-03T11:24:59.000Z,21.8
2023-04-03T11:26:09.336Z,21.8
2023-04-03T11:27:18.473Z,21.8
2023-04-03T11:28:27.000Z,21.6
2023-04-03T11:29:36.000Z,21.6
2023-04-03T11:30:46.865Z,21.6
2023-04-03T11:31:56.000Z,21.6
2023-04-03T11:33:05.000Z,21.3
2023-04-03T11:34:15.261Z,21.5
2023-04-03T11:35:25.367Z,21.4
2023-04-03T11:36:35.501Z,21.4
2023-04-03T11:37:45.000Z,21.3
2023-04-03T11:38:55.719Z,21.3
2023-04-03T11:40:05.833Z,21.4
2023-04-03T11:41:15.960Z,21.2
2023-04-03T11:42:26.000Z,21.1
2023-04-03T11:43:36.179Z,21.2
2023-04-03T11:44:46.295Z,21.1
2023-04-03T11:45:56.411Z,21.1
2023-04-03T11:47:06.533Z,21
2023-04-03T11:48:15.000Z,20.9
2023-04-03T11:49:25.000Z,20.8
2023-04-03T11:50:35.000Z,20.7
2023-04-03T11:51:46.007Z,20.7
2023-04-03T11:52:56.000Z,20.6
2023-04-03T11:54:06.000Z,20.5
2023-04-03T11:55:16.356Z,20.5
2023-04-03T11:56:25.500Z,20.4
2023-04-03T11:57:34.000Z,20.4
2023-04-03T11:58:44.746Z,20.4
2023-04-03T11:59:53.895Z,20.3
2023-04-03T12:01:03.026Z,20.3
2023-04-03T12:02:13.000Z,20.2
2023-04-03T12:03:23.250Z,20.2
2023-04-03T12:04:33.368Z,20.2
2023-04-03T12:05:43.489Z,20.1
2023-04-03T12:06:53.603Z,20.1
2023-04-03T12:08:03.714Z,20.1
2023-04-03T12:09:13.848Z,20
2023-04-03T12:10:23.953Z,20.1
2023-04-03T12:11:34.062Z,20
2023-04-03T12:12:44.000Z,20
2023-04-03T12:13:54.000Z,20
2023-04-03T12:15:04.420Z,19.9
2023-04-03T12:16:13.000Z,20
2023-04-03T12:17:23.000Z,19.9
2023-04-03T12:18:33.000Z,19.9
2023-04-03T12:19:43.000Z,19.9
2023-04-03T12:20:54.000Z,19.8
2023-04-03T12:22:04.000Z,19.8
2023-04-03T12:23:14.000Z,20.1
2023-04-03T12:24:23.000Z,19.9
2023-04-03T12:25:32.522Z,20.1
2023-04-03T12:26:42.634Z,20.1
2023-04-03T12:27:51.782Z,20.2
2023-04-03T12:29:00.000Z,20.2
2023-04-03T12:30:11.031Z,20.3
2023-04-03T12:31:21.000Z,20.4
2023-04-03T12:32:31.270Z,20.3
2023-04-03T12:33:41.000Z,20.3
2023-04-03T12:34:51.000Z,20.3
2023-04-03T12:36:01.000Z,20.2
2023-04-03T12:37:11.000Z,20.4
2023-04-03T12:38:21.000Z,20.3
2023-04-03T12:40:42.000Z,20.3
2023-04-03T12:41:52.000Z,20.3
2023-04-03T12:43:02.304Z,20.3
2023-04-03T12:44:11.000Z,20.4
2023-04-03T12:45:21.550Z,20.3
2023-04-03T12:46:31.672Z,20.3
2023-04-03T12:47:41.000Z,20.3
2023-04-03T12:48:51.896Z,20.2
2023-04-03T12:50:02.000Z,20.3
2023-04-03T12:51:12.000Z,20.2
2023-04-03T12:52:22.000Z,20.2
2023-04-03T12:53:31.000Z,20.2
2023-04-03T12:54:40.514Z,20.2
2023-04-03T12:55:49.000Z,20.2
2023-04-03T12:56:58.794Z,20.2
2023-04-03T12:58:08.905Z,20.1
2023-04-03T12:59:19.031Z,20.1
2023-04-03T13:00:29.000Z,20.1
2023-04-03T13:01:39.262Z,20.1
2023-04-03T13:02:49.000Z,20.1
2023-04-03T13:03:59.496Z,20
2023-04-03T13:05:09.000Z,20
2023-04-03T13:06:19.719Z,19.9
2023-04-03T13:07:29.000Z,19.9
2023-04-03T13:08:39.000Z,19.8
2023-04-03T13:09:50.070Z,19.8
2023-04-03T13:11:00.000Z,19.9
2023-04-03T13:12:09.000Z,19.8
2023-04-03T13:13:19.000Z,19.8
2023-04-03T13:14:29.546Z,19.8
2023-04-03T13:15:39.665Z,19.8
2023-04-03T13:16:49.000Z,19.8
2023-04-03T13:17:59.000Z,19.8
2023-04-03T13:19:10.025Z,19.8
2023-04-03T13:20:19.000Z,19.7
2023-04-03T13:21:28.289Z,19.8
2023-04-03T13:22:37.000Z,19.6
2023-04-03T13:23:46.561Z,19.6
2023-04-03T13:24:56.000Z,19.6
2023-04-03T13:26:06.000Z,19.5
2023-04-03T13:27:16.911Z,19.5
2023-04-03T13:28:27.029Z,19.5
2023-04-03T13:29:37.000Z,19.5
2023-04-03T13:30:47.000Z,19.5
2023-04-03T13:31:57.378Z,19.5
2023-04-03T13:33:07.000Z,19.4
2023-04-03T13:34:17.607Z,19.4
2023-04-03T13:35:27.000Z,19.4
2023-04-03T13:36:37.000Z,19.5
2023-04-03T13:37:47.000Z,19.5
2023-04-03T13:38:57.000Z,19.3
2023-04-03T13:40:07.000Z,19.3
2023-04-03T13:41:17.323Z,19.2
2023-04-03T13:42:27.000Z,19.1
2023-04-03T13:43:37.555Z,19.1
2023-04-03T13:44:47.000Z,19
2023-04-03T13:45:57.000Z,18.9
2023-04-03T13:47:06.000Z,18.9
2023-04-03T13:48:16.068Z,18.9
2023-04-03T13:49:25.000Z,18.8
2023-04-03T13:50:34.000Z,18.8
2023-04-03T13:51:44.455Z,18.8
2023-04-03T13:52:54.000Z,18.9
2023-04-03T13:54:03.836Z,19
2023-04-03T13:55:12.966Z,19.1
2023-04-03T13:56:22.105Z,19.1
2023-04-03T13:57:31.000Z,19.1
2023-04-03T13:58:41.364Z,19.3
2023-04-03T13:59:51.000Z,19.2
2023-04-03T14:01:01.000Z,19.1
2023-04-03T14:02:11.695Z,18.9
2023-04-03T14:03:21.000Z,18.9
2023-04-03T14:04:31.000Z,18.9
2023-04-03T14:05:42.050Z,18.8
2023-04-03T14:06:52.000Z,18.8
2023-04-03T14:08:02.000Z,18.7
2023-04-03T14:09:12.000Z,18.7
2023-04-03T14:10:22.000Z,18.6
2023-04-03T14:11:32.634Z,18.6
2023-04-03T14:12:41.774Z,18.6
2023-04-03T14:13:51.883Z,18.6
2023-04-03T14:15:01.991Z,18.5
2023-04-03T14:16:12.117Z,18.5
2023-04-03T14:17:22.000Z,18.5
2023-04-03T14:18:32.000Z,18.4
2023-04-03T14:19:42.462Z,18.4
2023-04-03T14:20:51.000Z,18.4
2023-04-03T14:22:00.000Z,18.3
2023-04-03T14:23:10.852Z,18.3
2023-04-03T14:24:20.000Z,18.3
2023-04-03T14:25:31.000Z,18.2
2023-04-03T14:26:41.000Z,18.3
2023-04-03T14:27:51.000Z,18.2
2023-04-03T14:29:01.440Z,18.1
2023-04-03T14:30:11.000Z,18.2
2023-04-03T14:31:21.000Z,18.1
2023-04-03T14:32:31.000Z,18.1
2023-04-03T14:33:41.000Z,18.1
2023-04-03T14:34:52.000Z,18
2023-04-03T14:36:02.000Z,18.1
2023-04-03T14:37:11.000Z,18
2023-04-03T14:38:21.381Z,18
2023-04-03T14:39:31.000Z,18
2023-04-03T14:40:41.609Z,18
2023-04-03T14:41:51.736Z,18.1
2023-04-03T14:43:01.840Z,18
2023-04-03T14:44:11.961Z,18
2023-04-03T14:45:21.000Z,18
2023-04-03T14:46:30.242Z,17.9
2023-04-03T14:47:39.000Z,18.1
2023-04-03T14:48:48.000Z,18
2023-04-03T14:49:58.630Z,17.9
2023-04-03T14:51:08.000Z,18
2023-04-03T14:52:18.855Z,17.8
2023-04-03T14:53:28.000Z,17.9
2023-04-03T14:54:39.087Z,17.9
2023-04-03T14:55:49.211Z,17.8
2023-04-03T14:56:59.322Z,17.9
2023-04-03T14:58:09.000Z,17.8
2023-04-03T14:59:19.000Z,17.8
2023-04-03T15:00:29.669Z,17.8
2023-04-03T15:01:39.000Z,17.8
2023-04-03T15:02:49.901Z,17.8
2023-04-03T15:03:59.000Z,17.9
2023-04-03T15:05:09.000Z,17.8
2023-04-03T15:06:19.277Z,17.7
2023-04-03T15:07:29.000Z,17.9
2023-04-03T15:08:39.000Z,17.7
2023-04-03T15:09:49.621Z,17.8
2023-04-03T15:10:59.000Z,17.7
2023-04-03T15:12:08.874Z,17.7
2023-04-03T15:13:18.013Z,17.9
2023-04-03T15:14:27.000Z,17.6
2023-04-03T15:15:36.000Z,17.6
2023-04-03T15:16:45.428Z,17.7
2023-04-03T15:17:54.558Z,17.7
2023-04-03T15:19:03.701Z,17.6
2023-04-03T15:21:22.963Z,17.6
2023-04-03T15:22:32.000Z,17.6
2023-04-03T15:23:42.000Z,17.5
2023-04-03T15:24:52.000Z,17.6
2023-04-03T15:26:02.436Z,17.7
2023-04-03T15:27:12.560Z,17.5
2023-04-03T15:28:22.000Z,17.6
2023-04-03T15:29:32.787Z,17.5
2023-04-03T15:30:42.000Z,17.6
2023-04-03T15:31:53.029Z,17.5
2023-04-03T15:33:03.000Z,17.5
2023-04-03T15:34:13.261Z,17.5
2023-04-03T15:35:23.369Z,17.5
2023-04-03T15:36:33.000Z,17.6
2023-04-03T15:37:42.000Z,17.5
2023-04-03T15:38:52.735Z,17.7